Terminal Aerodrome Forecast
Issued by NWS

Home | Current Version | Previous Version | Text Only | Print | Product List | Glossary On
Versions: 1 2 3 4 5 6 7 8 9 10 11 12
107
FTUS42 TJSJ 261742
TAFIST
TAF
TIST 261742Z 2618/2718 10007KT P6SM FEW025 SCT050
     FM262300 08009KT P6SM VCSH SCT035 SCT050
     FM270600 07009KT P6SM -SHRA FEW025 SCT030 SCT050
     FM271400 09014G21KT P6SM VCSH SCT035 SCT050=

USA.gov is the U.S. government's official web portal to all federal, state and local government web resources and services.